Terminal Aerodrome Forecast
Issued by NWS Caribou, ME

Current Version | Previous Version | Text Only | Print | Product List | Glossary On
Versions: 1 2 3 4 5 6 7 8 9 10 11 12 13 14 15 16 17 18 19 20 21 22 23
000
FTUS41 KCAR 280524 CCB
TAFCAR
TAF COR
KCAR 280524Z 2806/2906 20004KT 6SM BR BKN050
     FM280800 20004KT 6SM BR VCTS BKN010CB
     FM281700 28008KT P6SM SCT250=

USA.gov is the U.S. government's official web portal to all federal, state and local government web resources and services.